Flight Track Log - Related Links

Times and Time Zones

All times are in EDT time to prevent confusion due to time zone crossing. See the ASQ4120 flight status page for this flight to view local times or setup timezone preferences in your user account.

Time Position Orientation Groundspeed Altitude Reporting Facility
EDT Latitude Longitude Course Direction KTS MPH feet Rate Location/Type
Tue 07:16:52 PM 41.4133 -81.8344 169° South 176 203 2,000  Level Cleveland Center
Tue 07:17:41 PM 41.4200 -81.7767 81° East 202 232 3,800 1,955 Climbing Cleveland Center
Tue 07:18:21 PM 41.3956 -81.7344 128° Southeast 252 290 4,900 1,680 Climbing Cleveland Center
Tue 07:19:21 PM 41.3247 -81.7250 174° South 271 312 6,600 2,350 Climbing Cleveland Center
Tue 07:20:21 PM 41.2478 -81.7181 176° South 278 320 9,600 2,150 Climbing Cleveland Center
Tue 07:21:21 PM 41.1764 -81.7528 200° South 272 313 10,900 1,200 Climbing Cleveland Center
Tue 07:22:00 PM 40.9231 -82.0391 169° South  Level FlightAware Approximate
Tue 07:22:21 PM 41.0961 -81.8450 221° Southwest 334 384 12,000  Level Cleveland Center
Tue 07:23:21 PM 41.0097 -81.9342 218° Southwest 381 438 13,600 1,850 Climbing Cleveland Center
Tue 07:24:21 PM 40.9272 -82.0231 219° Southwest 389 448 15,700 1,700 Climbing Cleveland Center
Tue 07:25:21 PM 40.8431 -82.0872 210° Southwest 394 453 17,000 1,391 Climbing Cleveland Center
Tue 07:27:48 PM 40.6031 -82.2619 209° Southwest 406 467 20,500 1,407 Climbing Indianapolis Center
Tue 07:28:50 PM 40.5014 -82.3350 209° Southwest 413 475 21,900 1,355 Climbing Indianapolis Center
Tue 07:29:52 PM 40.3983 -82.4108 209° Southwest 420 483 23,300 1,344 Climbing Indianapolis Center
Tue 07:30:55 PM 40.2939 -82.4847 208° Southwest 423 487 24,700 1,452 Climbing Indianapolis Center
Tue 07:31:56 PM 40.1758 -82.5694 209° Southwest 425 489 26,300 1,463 Climbing Indianapolis Center
Tue 07:32:58 PM 40.0617 -82.5939 189° South 413 475 27,700 1,355 Climbing Indianapolis Center
Tue 07:34:00 PM 39.9456 -82.6017 183° South 411 473 29,100 1,366 Climbing Indianapolis Center
Tue 07:35:01 PM 39.8300 -82.6100 183° South 411 473 30,500 1,366 Climbing Indianapolis Center
Tue 07:36:03 PM 39.7131 -82.6178 183° South 414 476 31,900 1,355 Climbing Indianapolis Center
Tue 07:37:05 PM 39.5944 -82.6261 183° South 420 483 33,300 1,306 Climbing Indianapolis Center
Tue 07:38:07 PM 39.4739 -82.6331 183° South 426 490 34,600 829 Climbing Indianapolis Center
Tue 07:39:08 PM 39.3511 -82.6414 183° South 431 496 35,000 244 Climbing Indianapolis Center
Tue 07:40:10 PM 39.2242 -82.6497 183° South 444 511 35,100 484 Climbing Indianapolis Center
Tue 07:41:12 PM 39.0967 -82.6578 183° South 448 516 36,000 439 Climbing Indianapolis Center
Tue 07:42:13 PM 38.9725 -82.6661 183° South 448 516 36,000  Level Indianapolis Center
Tue 07:43:15 PM 38.8250 -82.6764 183° South 443 510 36,000  Level Indianapolis Center
Tue 07:44:17 PM 38.7006 -82.6844 183° South 448 516 36,000  Level Indianapolis Center
Tue 07:45:18 PM 38.5767 -82.6931 183° South 448 516 36,000  Level Indianapolis Center
Tue 07:46:20 PM 38.4519 -82.7006 183° South 447 514 36,000  Level Indianapolis Center
Tue 07:47:22 PM 38.3242 -82.7094 183° South 456 525 36,000  Level Indianapolis Center
Tue 07:48:24 PM 38.1756 -82.7186 183° South 458 527 36,000  Level Indianapolis Center
Tue 07:49:25 PM 38.0475 -82.7286 184° South 458 527 36,000  Level Indianapolis Center
Tue 07:50:27 PM 37.9186 -82.7361 183° South 462 532 36,000  Level Indianapolis Center
Tue 07:51:29 PM 37.7908 -82.7447 183° South 459 528 36,000  Level Indianapolis Center
Tue 07:52:30 PM 37.6642 -82.7631 187° South 458 527 36,000  Level Indianapolis Center
Tue 07:53:32 PM 37.5389 -82.7831 187° South 454 522 36,000  Level Indianapolis Center
Tue 07:54:34 PM 37.4131 -82.8031 187° South 454 522 36,000  Level Indianapolis Center
Tue 07:55:35 PM 37.2661 -82.8253 187° South 455 524 36,000  Level Indianapolis Center
Tue 07:56:37 PM 37.1375 -82.8458 187° South 462 532 36,000  Level Indianapolis Center
Tue 07:57:21 PM 37.0578 -82.8606 188° South 474 545 36,000  Level Atlanta Center
Tue 07:58:21 PM 36.9267 -82.8833 188° South 474 545 36,000  Level Atlanta Center
Tue 07:58:40 PM 36.8789 -82.8853 182° South 470 541 36,000  Level Indianapolis Center
Tue 07:59:21 PM 36.7767 -82.9036 188° South 489 563 36,000  Level Atlanta Center
Tue 08:00:21 PM 36.6517 -82.9236 187° South 475 547 36,000  Level Atlanta Center
Tue 08:01:21 PM 36.5247 -82.9408 186° South 461 531 36,000  Level Atlanta Center
Tue 08:02:21 PM 36.4019 -82.9606 187° South 456 525 36,000  Level Atlanta Center
Tue 08:03:21 PM 36.2831 -82.9775 187° South 438 504 36,000  Level Atlanta Center
Tue 08:04:21 PM 36.1603 -82.9972 187° South 438 504 36,000 -450 Level Atlanta Center
Tue 08:05:21 PM 36.0353 -83.0167 187° South 443 510 35,100 -500 Descending Atlanta Center
Tue 08:06:21 PM 35.9122 -83.0336 186° South 449 517 35,000 -50 Descending Atlanta Center
Tue 08:07:21 PM 35.7853 -83.0633 191° South 455 524 35,000  Level Atlanta Center
Tue 08:08:21 PM 35.6833 -83.1106 201° Southwest 448 516 35,000 -550 Level Atlanta Center
Tue 08:09:21 PM 35.5692 -83.1631 201° Southwest 448 516 33,900 -1,300 Descending Atlanta Center
Tue 08:10:21 PM 35.4528 -83.2203 202° Southwest 448 516 32,400 -1,500 Descending Atlanta Center
Tue 08:11:21 PM 35.3383 -83.2750 201° Southwest 448 516 30,900 -1,500 Descending Atlanta Center
Tue 08:12:21 PM 35.2217 -83.3269 200° South 448 516 29,400 -1,550 Descending Atlanta Center
Tue 08:13:21 PM 35.0822 -83.3917 201° Southwest 468 539 27,800 -1,500 Descending Atlanta Center
Tue 08:14:21 PM 34.9658 -83.4456 201° Southwest 468 539 26,400 -1,450 Descending Atlanta Center
Tue 08:15:21 PM 34.8553 -83.4919 199° South 468 539 24,900 -1,350 Descending Atlanta Center
Tue 08:16:21 PM 34.7325 -83.5536 202° Southwest 468 539 23,700 -1,550 Descending Atlanta Center
Tue 08:17:21 PM 34.6178 -83.6047 200° South 458 527 21,800 -1,950 Descending Atlanta Center
Tue 08:18:21 PM 34.5053 -83.6581 201° Southwest 444 511 19,800 -2,000 Descending Atlanta Center
Tue 08:19:21 PM 34.3950 -83.7089 201° Southwest 435 501 17,800 -2,150 Descending Atlanta Center
Tue 08:20:21 PM 34.2886 -83.7547 200° South 422 486 15,500 -2,300 Descending Atlanta Center
Tue 08:21:21 PM 34.1844 -83.8028 201° Southwest 404 465 13,200 -1,750 Descending Atlanta Center
Tue 08:22:21 PM 34.0864 -83.8506 202° Southwest 386 444 12,000 -686 Descending Atlanta Center
Tue 08:23:06 PM 34.0333 -83.9000 218° Southwest 304 350 12,000 -848 Level Atlanta TRACON
Tue 08:24:00 PM 33.9833 -83.9667 228° Southwest 291 335 10,600 -1,500 Descending Atlanta TRACON
Tue 08:25:06 PM 33.9000 -84.0333 214° Southwest 286 329 9,000 -1,143 Descending Atlanta TRACON
Tue 08:26:06 PM 33.8500 -84.0833 220° Southwest 293 337 8,200 -880 Descending Atlanta TRACON
Tue 08:26:21 PM 33.8233 -84.0939 198° South 294 338 7,900 -1,360 Descending Atlanta Center
Tue 08:27:21 PM 33.7442 -84.0989 183° South 284 327 6,500 -1,100 Descending Atlanta Center
Tue 08:28:21 PM 33.6731 -84.1061 185° South 268 308 5,700 -857 Descending Atlanta Center
Tue 08:29:06 PM 33.6500 -84.1333 225° Southwest 220 253 5,000 -919 Descending Atlanta TRACON
Tue 08:30:12 PM 33.6500 -84.2167 270° West 200 230 4,000 -857 Descending Atlanta TRACON
Tue 08:31:12 PM 33.6500 -84.2833 270° West 181 208 3,200 -842 Descending Atlanta TRACON
Tue 08:32:06 PM 33.6500 -84.3167 270° West 153 176 2,400 -789 Descending Atlanta TRACON
Tue 08:33:06 PM 33.6500 -84.3667 270° West 119 137 1,700 -700 Descending Atlanta TRACON
Tue 08:35:00 PM 33.6367 -84.4279 270° West  Level Estimated
Tue 08:42:00 PM 33.6367 -84.4279 64° Northeast  Level Estimated

Login

Don't have an account? Register now (free) for customized features, flight alerts, and more!